Time;durP1;ratioP1;P1;durP2;ratioP2;P2;SDS_P1;SDS_P2;PMS_P1;PMS_P2;Temp;Humidity;BMP_temperature;BMP_pressure;BME280_temperature;BME280_humidity;BME280_pressure;Samples;Min_cycle;Max_cycle;Signal;HPM_P1;HPM_P2
2021/12/10 00:00:25;;;;;;;3.47;1.40;;;;;;;6.19;100.00;98175.75;4996659;28;20050;-86
2021/12/10 00:02:52;;;;;;;4.75;1.33;;;;;;;6.27;100.00;98165.75;4990672;28;20054;-87
2021/12/10 00:05:28;;;;;;;3.22;1.30;;;;;;;6.24;100.00;98165.91;4996451;28;20046;-87
2021/12/10 00:07:55;;;;;;;3.53;1.20;;;;;;;6.20;100.00;98154.06;4993143;28;20058;-87
2021/12/10 00:10:38;;;;;;;5.50;1.20;;;;;;;6.36;100.00;98174.75;4994258;28;20063;-87
2021/12/10 00:13:06;;;;;;;;;;;;;;;6.45;100.00;98175.94;4978417;28;20050;-87
2021/12/10 00:15:36;;;;;;;4.82;1.40;;;;;;;6.39;100.00;98177.16;4995271;28;20565;-87
2021/12/10 00:18:05;;;;;;;2.92;1.15;;;;;;;6.34;100.00;98183.53;4996276;28;20046;-87
2021/12/10 00:20:35;;;;;;;3.97;1.20;;;;;;;6.31;100.00;98192.38;4996197;28;20493;-87
2021/12/10 00:23:08;;;;;;;4.20;1.15;;;;;;;6.13;100.00;98170.94;4995728;28;20083;-87
2021/12/10 00:25:40;;;;;;;2.28;1.20;;;;;;;6.26;100.00;98173.63;4995846;28;20049;-86
2021/12/10 00:28:33;;;;;;;2.67;1.10;;;;;;;6.19;100.00;98185.31;4988305;28;21097;-87
2021/12/10 00:34:34;;;;;;;5.10;2.33;;;;;;;6.22;100.00;98195.53;5007143;28;20646;-87
2021/12/10 00:37:04;;;;;;;2.85;1.20;;;;;;;6.04;100.00;98169.72;4958487;28;20459;-86
2021/12/10 00:39:39;;;;;;;2.42;1.13;;;;;;;6.27;100.00;98196.91;5013378;28;20547;-87
2021/12/10 00:42:11;;;;;;;2.92;1.17;;;;;;;6.20;100.00;98189.59;4991947;28;20049;-87
2021/12/10 00:44:38;;;;;;;6.82;1.40;;;;;;;6.05;100.00;98184.38;4996052;28;20046;-87
2021/12/10 00:47:05;;;;;;;1.88;1.00;;;;;;;6.19;100.00;98180.94;5004893;28;20071;-87
2021/12/10 00:49:33;;;;;;;2.40;1.20;;;;;;;6.31;100.00;98181.97;5015122;28;20045;-87
2021/12/10 00:52:00;;;;;;;2.33;1.20;;;;;;;6.25;100.00;98164.13;4992542;28;20409;-87
2021/12/10 00:54:28;;;;;;;2.53;1.10;;;;;;;6.09;100.00;98148.66;5010713;28;20050;-87
2021/12/10 00:56:55;;;;;;;2.58;1.00;;;;;;;6.14;100.00;98156.19;4995152;28;20057;-87
2021/12/10 00:59:22;;;;;;;1.65;1.05;;;;;;;6.20;100.00;98153.22;4995652;28;20149;-87
2021/12/10 01:01:50;;;;;;;2.95;1.30;;;;;;;6.22;100.00;98159.16;5003129;28;20057;-87
2021/12/10 01:04:22;;;;;;;2.45;1.20;;;;;;;6.33;100.00;98166.28;5008986;28;20042;-87
2021/12/10 01:06:52;;;;;;;3.67;1.30;;;;;;;6.26;100.00;98174.44;5012406;28;20081;-87
2021/12/10 01:09:27;;;;;;;2.50;1.17;;;;;;;6.24;100.00;98154.69;5012852;28;20476;-87
2021/12/10 01:12:03;;;;;;;2.58;1.10;;;;;;;6.23;100.00;98163.41;4977382;28;20050;-87
2021/12/10 01:15:07;;;;;;;4.65;1.35;;;;;;;6.24;100.00;98170.28;4992363;28;20054;-87
2021/12/10 01:26:09;;;;;;;2.40;1.10;;;;;;;6.16;100.00;98165.56;4992149;28;20050;-87
2021/12/10 01:28:40;;;;;;;1.92;1.00;;;;;;;6.11;100.00;98180.59;4975782;28;20137;-87
2021/12/10 01:31:08;;;;;;;1.35;1.00;;;;;;;6.17;100.00;98184.56;4992290;28;20131;-87
2021/12/10 01:33:35;;;;;;;1.63;1.00;;;;;;;6.07;100.00;98179.94;4980843;28;20050;-87
2021/12/10 01:36:07;;;;;;;2.60;1.10;;;;;;;6.02;100.00;98184.56;4990900;28;20050;-87
2021/12/10 01:38:37;;;;;;;3.63;1.48;;;;;;;6.17;100.00;98202.78;4974783;28;20138;-87
2021/12/10 01:41:09;;;;;;;1.70;0.98;;;;;;;6.06;100.00;98183.44;4977324;28;20502;-87
2021/12/10 01:43:39;;;;;;;1.40;1.00;;;;;;;6.13;100.00;98202.13;4992796;28;20050;-87
2021/12/10 01:46:13;;;;;;;1.30;0.90;;;;;;;6.11;100.00;98196.19;4985072;28;20050;-87
2021/12/10 01:48:50;;;;;;;1.73;0.88;;;;;;;6.15;100.00;98204.63;4993608;28;20218;-87
2021/12/10 01:51:21;;;;;;;1.42;0.90;;;;;;;6.00;100.00;98195.97;4986616;28;20050;-87
2021/12/10 01:53:50;;;;;;;1.63;0.80;;;;;;;5.82;100.00;98203.06;4990964;28;20736;-87
2021/12/10 01:56:25;;;;;;;1.23;0.80;;;;;;;6.07;100.00;98212.84;4994287;28;20050;-87
2021/12/10 01:58:52;;;;;;;1.10;0.90;;;;;;;6.10;100.00;98202.28;4994537;28;20056;-88
2021/12/10 02:01:31;;;;;;;1.67;0.85;;;;;;;6.15;100.00;98207.22;5003828;28;20068;-88
2021/12/10 02:04:00;;;;;;;2.00;0.95;;;;;;;5.91;100.00;98207.69;4987390;28;20133;-87
2021/12/10 02:06:27;;;;;;;2.03;0.90;;;;;;;6.10;100.00;98204.88;4994771;28;20498;-88
2021/12/10 02:08:54;;;;;;;1.02;0.90;;;;;;;6.06;100.00;98216.41;5011787;28;20061;-86
2021/12/10 02:11:21;;;;;;;2.05;1.30;;;;;;;5.78;100.00;98173.00;4986026;28;20062;-87
2021/12/10 02:13:48;;;;;;;1.20;0.90;;;;;;;5.63;100.00;98143.56;4993972;28;20054;-87
2021/12/10 02:16:16;;;;;;;2.92;1.00;;;;;;;5.99;100.00;98215.91;4994625;28;20096;-87
2021/12/10 02:18:43;;;;;;;2.72;1.10;;;;;;;6.04;100.00;98233.84;5015790;28;20050;-87
2021/12/10 02:21:10;;;;;;;1.02;0.90;;;;;;;5.94;100.00;98235.28;4991829;28;20048;-87
2021/12/10 02:23:43;;;;;;;1.30;0.90;;;;;;;5.95;100.00;98224.78;4978577;28;20061;-87
2021/12/10 02:26:13;;;;;;;2.40;1.00;;;;;;;5.92;100.00;98242.31;5007197;28;20048;-87
2021/12/10 02:28:41;;;;;;;1.55;1.10;;;;;;;5.88;100.00;98249.47;4998698;28;20050;-86
2021/12/10 02:31:12;;;;;;;1.33;1.00;;;;;;;5.91;100.00;98251.84;4993537;28;20074;-87
2021/12/10 02:33:39;;;;;;;3.97;1.08;;;;;;;5.95;100.00;98252.50;4998157;28;20129;-85
2021/12/10 02:36:11;;;;;;;1.80;0.90;;;;;;;5.93;100.00;98236.19;4998662;28;20054;-87
2021/12/10 02:38:41;;;;;;;4.45;1.45;;;;;;;5.96;100.00;98251.63;5015754;28;20085;-87
2021/12/10 02:41:08;;;;;;;1.75;0.90;;;;;;;5.62;100.00;98218.03;4996997;28;20479;-87
2021/12/10 02:43:36;;;;;;;2.42;1.00;;;;;;;5.97;100.00;98259.34;4998397;28;20062;-88
2021/12/10 02:46:04;;;;;;;3.45;1.20;;;;;;;5.48;100.00;98256.91;4997490;28;20400;-87
2021/12/10 02:48:32;;;;;;;2.45;1.23;;;;;;;5.68;100.00;98263.56;4997236;28;20773;-87
2021/12/10 02:51:01;;;;;;;2.53;1.17;;;;;;;5.91;100.00;98275.22;5014525;28;20041;-87
2021/12/10 02:53:30;;;;;;;2.78;1.20;;;;;;;5.76;100.00;98278.72;4993397;28;20565;-87
2021/12/10 02:55:58;;;;;;;6.03;1.30;;;;;;;5.68;100.00;98277.41;4992026;28;20064;-88
2021/12/10 02:58:26;;;;;;;6.00;1.30;;;;;;;5.62;100.00;98262.16;4986117;28;20491;-87
2021/12/10 03:01:07;;;;;;;3.25;1.20;;;;;;;5.63;100.00;98263.00;4988986;28;20061;-88
2021/12/10 03:03:37;;;;;;;5.05;1.50;;;;;;;5.69;100.00;98270.44;4992515;28;20053;-87
2021/12/10 03:06:10;;;;;;;6.10;1.40;;;;;;;5.75;100.00;98280.47;4988910;28;20052;-88
2021/12/10 03:08:45;;;;;;;4.28;1.50;;;;;;;5.53;100.00;98283.44;4988566;28;20057;-88
2021/12/10 03:11:13;;;;;;;5.80;1.60;;;;;;;5.49;100.00;98281.97;4992610;28;20054;-88
2021/12/10 03:13:41;;;;;;;7.43;1.50;;;;;;;5.47;100.00;98297.63;4987340;28;20053;-88
2021/12/10 03:16:09;;;;;;;5.45;1.13;;;;;;;5.84;100.00;98303.34;5007513;28;20479;-88
2021/12/10 03:18:36;;;;;;;3.63;1.27;;;;;;;5.64;100.00;98295.81;4985944;28;20056;-87
2021/12/10 03:21:09;;;;;;;6.43;1.27;;;;;;;5.52;100.00;98294.75;4986481;28;20769;-88
2021/12/10 03:23:42;;;;;;;8.20;1.50;;;;;;;5.62;100.00;98300.28;4994385;28;20054;-87
2021/12/10 03:26:17;;;;;;;6.03;1.40;;;;;;;5.58;100.00;98306.53;4991715;28;20495;-87
2021/12/10 03:28:46;;;;;;;3.38;1.20;;;;;;;5.50;100.00;98297.41;4980697;28;20062;-87
2021/12/10 03:31:13;;;;;;;8.48;1.55;;;;;;;5.47;100.00;98284.63;4988956;28;20624;-88
2021/12/10 03:33:41;;;;;;;6.00;1.92;;;;;;;5.68;100.00;98316.34;4989720;28;20526;-88
2021/12/10 03:36:10;;;;;;;9.20;1.38;;;;;;;5.76;100.00;98315.06;4990632;28;20038;-87
2021/12/10 03:38:40;;;;;;;3.58;1.42;;;;;;;5.66;100.00;98312.97;4997213;28;20046;-89
2021/12/10 03:41:11;;;;;;;7.40;1.48;;;;;;;5.53;100.00;98319.78;4991013;28;20104;-86
2021/12/10 03:43:40;;;;;;;5.90;1.33;;;;;;;5.68;100.00;98321.53;4997302;28;20120;-87
2021/12/10 03:46:07;;;;;;;5.93;1.63;;;;;;;5.33;100.00;98331.28;4996707;28;20046;-86
2021/12/10 03:48:40;;;;;;;7.10;1.50;;;;;;;5.55;100.00;98320.53;5013877;28;20104;-87
2021/12/10 03:51:10;;;;;;;7.78;1.63;;;;;;;5.13;100.00;98296.88;4991389;28;20062;-88
2021/12/10 03:53:38;;;;;;;7.07;1.52;;;;;;;5.64;100.00;98339.97;4996892;28;20054;-88
2021/12/10 03:56:09;;;;;;;7.97;1.70;;;;;;;5.57;100.00;98323.88;4996860;28;20104;-87
2021/12/10 03:58:36;;;;;;;8.98;1.75;;;;;;;5.53;100.00;98342.31;4994637;28;20411;-88
2021/12/10 04:01:08;;;;;;;6.22;1.50;;;;;;;5.38;100.00;98341.38;4989531;28;20046;-88
2021/12/10 04:03:35;;;;;;;13.57;1.67;;;;;;;5.59;100.00;98341.97;4978784;28;20093;-87
2021/12/10 04:06:03;;;;;;;6.20;1.65;;;;;;;5.26;100.00;98341.16;5012256;28;20133;-88
2021/12/10 04:08:31;;;;;;;6.78;1.40;;;;;;;5.36;100.00;98357.03;5013765;28;20053;-87
2021/12/10 04:11:02;;;;;;;6.88;1.40;;;;;;;5.37;100.00;98353.53;4994444;28;20048;-88
2021/12/10 04:13:29;;;;;;;8.65;1.77;;;;;;;5.00;100.00;98341.72;4996470;28;20054;-88
2021/12/10 04:15:56;;;;;;;21.52;3.03;;;;;;;5.13;100.00;98335.78;5012980;28;20042;-89
2021/12/10 04:18:23;;;;;;;8.95;1.45;;;;;;;5.21;100.00;98339.72;4994426;28;20046;-88
2021/12/10 04:20:50;;;;;;;5.50;1.50;;;;;;;5.33;100.00;98344.25;4992914;28;20062;-88
2021/12/10 04:23:19;;;;;;;6.82;1.50;;;;;;;5.29;100.00;98358.28;5004088;28;20473;-88
2021/12/10 04:25:47;;;;;;;3.83;1.40;;;;;;;5.29;100.00;98348.78;4996700;28;20049;-89
2021/12/10 04:28:18;;;;;;;6.20;1.40;;;;;;;5.28;100.00;98352.28;4996268;28;20058;-89
2021/12/10 04:30:47;;;;;;;6.95;1.38;;;;;;;5.27;100.00;98348.00;4993335;28;20046;-88
2021/12/10 04:33:17;;;;;;;9.38;1.98;;;;;;;5.33;100.00;98359.81;4992631;28;20050;-88
2021/12/10 04:35:46;;;;;;;7.18;1.52;;;;;;;5.27;100.00;98366.16;5011446;28;20053;-88
2021/12/10 04:38:15;;;;;;;11.45;1.70;;;;;;;5.43;100.00;98379.13;4990407;28;20048;-88
2021/12/10 04:40:46;;;;;;;3.50;1.23;;;;;;;5.27;100.00;98373.09;4993332;28;20133;-88
2021/12/10 04:43:18;;;;;;;7.57;1.40;;;;;;;5.31;100.00;98396.22;4994881;28;20065;-89
2021/12/10 04:45:45;;;;;;;8.95;1.77;;;;;;;5.20;100.00;98393.34;4995883;28;20072;-88
2021/12/10 04:48:13;;;;;;;10.02;1.58;;;;;;;5.10;100.00;98407.75;4995250;28;20046;-88
2021/12/10 04:50:40;;;;;;;7.63;1.60;;;;;;;5.17;100.00;98383.16;4997797;28;20403;-88
2021/12/10 04:53:09;;;;;;;7.50;1.42;;;;;;;4.98;100.00;98359.09;5011375;28;20056;-88
2021/12/10 04:55:37;;;;;;;7.65;1.55;;;;;;;4.83;100.00;98373.69;4995974;28;20396;-89
2021/12/10 04:58:05;;;;;;;7.68;1.52;;;;;;;4.93;100.00;98380.91;4995495;28;20049;-88
2021/12/10 05:00:37;;;;;;;5.90;1.50;;;;;;;5.30;100.00;98417.88;4984589;28;20054;-88
2021/12/10 05:03:06;;;;;;;7.93;1.50;;;;;;;5.20;100.00;98426.25;5009932;28;20501;-89
2021/12/10 05:05:33;;;;;;;7.03;1.70;;;;;;;4.92;100.00;98397.41;4994741;28;21007;-88
2021/12/10 05:08:00;;;;;;;10.10;2.40;;;;;;;4.92;100.00;98425.06;5012569;28;20053;-88
2021/12/10 05:10:27;;;;;;;8.88;1.60;;;;;;;5.00;100.00;98409.97;4994489;28;20050;-88
2021/12/10 05:12:54;;;;;;;7.45;2.17;;;;;;;5.00;100.00;98409.97;4987407;28;20073;-89
2021/12/10 05:15:23;;;;;;;6.00;1.40;;;;;;;4.87;100.00;98427.06;4994671;28;20038;-88
2021/12/10 05:17:52;;;;;;;10.32;2.10;;;;;;;5.05;100.00;98436.50;4995488;28;20093;-89
2021/12/10 05:20:29;;;;;;;5.72;1.48;;;;;;;4.97;100.00;98433.47;5012497;28;20045;-88
2021/12/10 05:22:57;;;;;;;13.32;2.05;;;;;;;4.89;100.00;98435.63;4994395;28;20451;-89
2021/12/10 05:25:26;;;;;;;6.85;1.98;;;;;;;4.87;100.00;98440.03;4992515;28;20708;-89
2021/12/10 05:27:53;;;;;;;8.00;1.70;;;;;;;4.91;100.00;98447.56;4992662;28;20412;-89
2021/12/10 05:30:23;;;;;;;7.75;2.10;;;;;;;5.02;100.00;98447.03;4986472;28;20387;-88
2021/12/10 05:32:50;;;;;;;6.05;1.58;;;;;;;5.02;100.00;98438.41;4985839;28;20050;-88
2021/12/10 05:35:17;;;;;;;10.18;1.83;;;;;;;5.09;100.00;98460.53;4986175;28;20042;-89
2021/12/10 05:37:44;;;;;;;9.77;1.83;;;;;;;4.78;100.00;98448.28;4983491;28;20046;-88
2021/12/10 05:40:13;;;;;;;6.07;1.83;;;;;;;4.81;100.00;98443.78;4984169;28;20431;-88
2021/12/10 05:42:43;;;;;;;6.20;1.88;;;;;;;4.56;100.00;98451.94;4984558;28;20054;-89
2021/12/10 05:45:10;;;;;;;5.88;1.52;;;;;;;4.50;100.00;98449.66;4986437;28;20473;-89
2021/12/10 05:47:37;;;;;;;6.55;1.83;;;;;;;4.72;100.00;98467.56;4984059;28;20050;-89
2021/12/10 05:50:09;;;;;;;4.97;1.40;;;;;;;4.77;100.00;98456.97;4984752;28;20057;-89
2021/12/10 05:52:35;;;;;;;5.45;1.52;;;;;;;4.88;100.00;98467.66;5003357;28;20050;-89
2021/12/10 05:55:04;;;;;;;3.65;1.50;;;;;;;4.77;100.00;98463.00;4982410;28;20662;-89
2021/12/10 05:57:30;;;;;;;6.60;1.40;;;;;;;4.69;100.00;98475.50;5011592;28;20050;-89
2021/12/10 05:59:57;;;;;;;3.60;1.30;;;;;;;4.61;100.00;98459.50;5011946;28;20056;-88
2021/12/10 06:02:25;;;;;;;6.25;1.33;;;;;;;4.44;100.00;98465.50;4991777;28;20050;-89
2021/12/10 06:04:52;;;;;;;5.25;1.40;;;;;;;4.46;100.00;98477.50;4994116;28;20092;-89
2021/12/10 06:07:19;;;;;;;5.90;1.60;;;;;;;4.63;100.00;98476.66;4994129;28;20046;-88
2021/12/10 06:09:45;;;;;;;5.25;1.50;;;;;;;4.42;100.00;98456.97;4994127;28;20050;-88
2021/12/10 06:12:14;;;;;;;7.38;1.42;;;;;;;4.44;100.00;98489.66;4986554;28;20061;-88
2021/12/10 06:14:40;;;;;;;4.93;1.42;;;;;;;4.40;100.00;98476.94;4999647;28;20054;-88
2021/12/10 06:17:07;;;;;;;6.38;1.70;;;;;;;4.45;100.00;98468.03;4978135;28;20657;-89
2021/12/10 06:19:34;;;;;;;8.95;1.80;;;;;;;4.60;100.00;98486.31;5007756;28;20404;-88
2021/12/10 06:22:02;;;;;;;7.05;1.60;;;;;;;4.30;100.00;98505.88;4991315;28;20506;-88
2021/12/10 06:24:30;;;;;;;4.75;1.50;;;;;;;4.46;100.00;98487.84;4994556;28;20056;-88
2021/12/10 06:26:57;;;;;;;4.63;1.52;;;;;;;4.36;100.00;98476.25;5006098;28;20124;-88
2021/12/10 06:29:25;;;;;;;4.47;1.50;;;;;;;4.31;100.00;98504.94;4993685;28;20046;-88
2021/12/10 06:31:54;;;;;;;6.18;1.27;;;;;;;4.50;100.00;98517.03;4984956;28;20060;-88
2021/12/10 06:34:21;;;;;;;6.70;2.05;;;;;;;4.13;100.00;98477.34;4993453;28;20054;-88
2021/12/10 06:36:50;;;;;;;6.07;1.50;;;;;;;3.91;100.00;98451.59;4978814;28;20743;-89
2021/12/10 06:39:20;;;;;;;4.05;1.38;;;;;;;3.99;100.00;98471.06;4994712;28;20612;-89
2021/12/10 06:41:49;;;;;;;6.65;1.65;;;;;;;3.97;100.00;98503.13;5007938;28;20128;-88
2021/12/10 06:44:17;;;;;;;6.47;1.40;;;;;;;3.90;100.00;98541.41;4999805;28;20491;-87
2021/12/10 06:46:45;;;;;;;7.00;1.60;;;;;;;4.42;100.00;98545.91;4993894;28;20050;-88
2021/12/10 06:49:14;;;;;;;5.30;1.33;;;;;;;4.25;100.00;98532.91;4992673;28;20119;-88
2021/12/10 06:51:42;;;;;;;8.65;1.50;;;;;;;4.33;100.00;98552.34;4990076;28;20050;-87
2021/12/10 06:54:09;;;;;;;8.55;1.50;;;;;;;4.31;100.00;98549.00;4993603;28;20052;-88
2021/12/10 06:56:36;;;;;;;7.18;1.40;;;;;;;4.23;100.00;98553.69;4993328;28;20696;-88
2021/12/10 06:59:09;;;;;;;7.30;1.40;;;;;;;4.24;100.00;98562.31;4991597;28;20050;-87
2021/12/10 07:01:40;;;;;;;5.80;1.65;;;;;;;4.34;100.00;98574.78;4990632;28;20050;-88
2021/12/10 07:04:12;;;;;;;4.15;1.30;;;;;;;4.11;100.00;98557.69;4995013;28;20062;-88
2021/12/10 07:06:41;;;;;;;5.78;1.77;;;;;;;4.12;100.00;98553.34;4989417;28;20695;-88
2021/12/10 07:09:14;;;;;;;8.63;1.65;;;;;;;4.03;100.00;98566.72;4989480;28;20046;-89
2021/12/10 07:11:40;;;;;;;3.80;1.43;;;;;;;4.01;100.00;98559.03;4991828;28;20061;-89
2021/12/10 07:14:07;;;;;;;3.97;1.30;;;;;;;3.93;100.00;98559.38;4990231;28;20062;-88
2021/12/10 07:16:35;;;;;;;5.20;1.25;;;;;;;3.91;100.00;98566.38;4989456;28;20051;-89
2021/12/10 07:19:05;;;;;;;4.70;1.48;;;;;;;4.04;100.00;98573.56;4987052;28;20631;-89
2021/12/10 07:21:33;;;;;;;5.90;1.42;;;;;;;4.04;100.00;98577.03;4992212;28;20580;-88
2021/12/10 07:24:06;;;;;;;6.85;2.15;;;;;;;4.16;100.00;98593.72;5009917;28;20408;-89
2021/12/10 07:26:33;;;;;;;6.30;1.60;;;;;;;4.17;100.00;98592.84;4989029;28;20058;-89
2021/12/10 07:29:00;;;;;;;5.15;1.38;;;;;;;4.29;100.00;98591.44;4989041;28;20053;-89
2021/12/10 07:31:27;;;;;;;4.68;1.83;;;;;;;4.11;100.00;98606.09;4991783;28;20046;-88
2021/12/10 07:33:54;;;;;;;4.00;1.30;;;;;;;4.30;100.00;98587.94;5001986;28;20046;-89
2021/12/10 07:36:23;;;;;;;10.65;1.77;;;;;;;3.84;100.00;98590.84;4987288;28;20180;-88
2021/12/10 07:38:50;;;;;;;9.13;2.05;;;;;;;4.21;100.00;98624.63;4992438;28;20402;-89
2021/12/10 07:41:17;;;;;;;7.22;1.52;;;;;;;3.88;100.00;98613.13;5010037;28;20046;-88
2021/12/10 07:43:44;;;;;;;7.75;1.50;;;;;;;4.14;100.00;98621.47;4992855;28;20050;-88
2021/12/10 07:46:12;;;;;;;5.22;1.60;;;;;;;3.95;100.00;98578.28;4990493;28;20472;-88
2021/12/10 07:48:41;;;;;;;8.60;1.60;;;;;;;3.88;100.00;98563.94;4996894;28;21059;-88
2021/12/10 07:51:16;;;;;;;4.43;1.20;;;;;;;4.17;100.00;98609.22;4993929;28;20069;-88
2021/12/10 07:53:44;;;;;;;8.02;1.63;;;;;;;4.41;100.00;98644.44;4992675;28;20142;-87
2021/12/10 07:56:13;;;;;;;5.93;1.30;;;;;;;4.31;100.00;98637.09;4977491;28;20057;-87
2021/12/10 07:58:42;;;;;;;6.03;1.40;;;;;;;4.22;100.00;98636.69;4994589;28;20054;-87
2021/12/10 08:01:17;;;;;;;7.60;1.50;;;;;;;4.28;100.00;98654.53;4989382;28;20046;-85
2021/12/10 08:03:45;;;;;;;6.70;1.80;;;;;;;4.12;100.00;98652.59;4995604;28;20053;-88
2021/12/10 08:06:13;;;;;;;8.93;1.65;;;;;;;4.21;100.00;98637.56;4996701;28;20404;-88
2021/12/10 08:08:40;;;;;;;7.72;1.92;;;;;;;4.27;100.00;98642.50;4996765;28;20046;-88
2021/12/10 08:11:08;;;;;;;11.13;2.65;;;;;;;4.29;100.00;98651.03;5010141;28;20054;-88
2021/12/10 08:13:35;;;;;;;13.20;1.88;;;;;;;4.18;100.00;98657.53;4990450;28;20050;-87
2021/12/10 08:16:02;;;;;;;12.95;2.28;;;;;;;4.19;100.00;98663.53;5013221;28;20050;-87
2021/12/10 08:18:30;;;;;;;7.53;1.85;;;;;;;4.17;100.00;98642.88;4996889;28;20128;-88
2021/12/10 08:20:57;;;;;;;14.73;2.35;;;;;;;4.51;100.00;98669.84;5010250;28;20065;-88
2021/12/10 08:23:25;;;;;;;6.30;1.90;;;;;;;3.89;100.00;98671.75;5014432;28;20058;-87
2021/12/10 08:25:52;;;;;;;9.85;2.22;;;;;;;3.98;100.00;98662.72;4996271;28;20056;-88
2021/12/10 08:28:22;;;;;;;7.18;2.20;;;;;;;4.08;100.00;98668.38;4999283;28;20416;-88
2021/12/10 08:30:50;;;;;;;8.65;2.20;;;;;;;4.16;100.00;98680.06;5012893;28;20053;-87
2021/12/10 08:33:18;;;;;;;6.03;1.70;;;;;;;3.91;100.00;98666.50;4976704;28;20054;-89
2021/12/10 08:35:49;;;;;;;10.57;2.20;;;;;;;3.92;100.00;98676.78;4988267;28;20506;-89
2021/12/10 08:38:16;;;;;;;11.40;1.83;;;;;;;4.17;100.00;98671.38;5014056;28;20054;-88
2021/12/10 08:40:57;;;;;;;9.82;1.60;;;;;;;4.06;100.00;98676.19;4993953;28;20056;-88
2021/12/10 08:43:26;;;;;;;4.68;1.80;;;;;;;3.72;100.00;98641.41;4976665;28;20412;-88
2021/12/10 08:45:53;;;;;;;14.40;2.90;;;;;;;3.75;100.00;98661.13;4977784;28;20046;-87
2021/12/10 08:48:26;;;;;;;10.43;1.85;;;;;;;4.38;100.00;98686.88;4999315;28;20050;-85
2021/12/10 08:50:55;;;;;;;7.10;2.05;;;;;;;4.14;100.00;98679.31;4991004;28;20134;-87
2021/12/10 08:53:23;;;;;;;8.10;2.70;;;;;;;4.35;100.00;98718.09;5004959;28;20054;-88
2021/12/10 08:55:53;;;;;;;11.93;2.10;;;;;;;4.15;100.00;98700.84;4976230;28;20050;-88
2021/12/10 08:58:21;;;;;;;6.78;1.63;;;;;;;4.45;100.00;98728.91;4976557;28;20085;-88
2021/12/10 09:01:07;;;;;;;5.85;1.67;;;;;;;4.42;100.00;98736.81;4989935;28;20053;-88
2021/12/10 09:03:48;;;;;;;5.22;1.50;;;;;;;4.44;100.00;98740.19;4976274;28;20050;-88
2021/12/10 09:06:18;;;;;;;7.13;1.77;;;;;;;4.31;100.00;98714.81;4997781;28;20078;-89
2021/12/10 09:08:45;;;;;;;4.80;1.60;;;;;;;4.46;100.00;98744.41;4988672;28;20077;-90
2021/12/10 09:11:12;;;;;;;8.05;1.70;;;;;;;4.46;100.00;98726.25;4980295;28;20137;-89
2021/12/10 09:13:41;;;;;;;7.97;2.13;;;;;;;4.19;100.00;98729.13;4992147;28;20057;-89
2021/12/10 09:16:17;;;;;;;7.35;1.60;;;;;;;4.55;100.00;98737.94;4989319;28;20514;-89
2021/12/10 09:18:44;;;;;;;3.83;1.42;;;;;;;4.72;100.00;98739.78;5005594;28;20050;-89
2021/12/10 09:21:12;;;;;;;12.27;1.90;;;;;;;4.55;100.00;98748.31;4992921;28;20049;-89
2021/12/10 09:23:39;;;;;;;7.90;1.73;;;;;;;4.28;100.00;98733.06;5011843;28;20053;-89
2021/12/10 09:26:10;;;;;;;8.85;1.92;;;;;;;4.36;100.00;98748.31;4994437;28;20402;-89
2021/12/10 09:28:40;;;;;;;10.18;1.73;;;;;;;4.31;100.00;98748.50;4990832;28;20133;-89
2021/12/10 09:31:08;;;;;;;8.95;2.17;;;;;;;4.57;100.00;98760.31;4976778;28;20060;-90
2021/12/10 09:33:36;;;;;;;12.60;1.80;;;;;;;4.34;100.00;98763.06;4989697;28;20073;-88
2021/12/10 09:36:04;;;;;;;5.88;1.50;;;;;;;4.47;100.00;98747.81;4986627;28;20125;-85
2021/12/10 09:38:32;;;;;;;10.18;2.30;;;;;;;4.58;100.00;98776.69;4985881;28;20099;-86
2021/12/10 09:41:04;;;;;;;13.73;2.85;;;;;;;4.56;100.00;98794.91;4986546;28;20133;-86
2021/12/10 09:43:32;;;;;;;8.35;2.08;;;;;;;4.47;100.00;98765.97;4988830;28;20050;-86
2021/12/10 09:46:01;;;;;;;9.70;1.70;;;;;;;4.28;100.00;98740.84;4987431;28;20042;-86
2021/12/10 09:48:27;;;;;;;15.98;2.10;;;;;;;4.75;100.00;98799.28;4993680;28;20053;-87
2021/12/10 09:51:05;;;;;;;5.90;1.50;;;;;;;4.82;100.00;98799.84;4986818;28;20042;-89
2021/12/10 09:53:34;;;;;;;5.72;1.60;;;;;;;4.88;100.00;98805.59;4983926;28;20056;-88
2021/12/10 09:56:03;;;;;;;8.27;2.00;;;;;;;4.73;100.00;98804.53;4991389;28;20046;-88
2021/12/10 09:58:30;;;;;;;8.82;1.80;;;;;;;4.55;100.00;98798.41;5006244;28;20050;-89
2021/12/10 10:01:02;;;;;;;8.45;1.55;;;;;;;5.02;100.00;98798.94;4990050;28;20052;-89
2021/12/10 10:03:33;;;;;;;9.40;2.40;;;;;;;5.00;100.00;98801.59;4986543;28;20046;-89
2021/12/10 10:05:59;;;;;;;7.60;1.75;;;;;;;5.13;100.00;98810.50;4992023;28;20096;-89
2021/12/10 10:08:27;;;;;;;5.70;1.77;;;;;;;4.93;100.00;98807.97;4991286;28;20053;-88
2021/12/10 10:11:02;;;;;;;7.82;1.70;;;;;;;4.97;100.00;98804.31;5001172;28;20054;-88
2021/12/10 10:13:32;;;;;;;6.18;1.50;;;;;;;4.89;100.00;98803.84;4986350;28;20046;-88
2021/12/10 10:15:59;;;;;;;10.10;2.08;;;;;;;5.10;100.00;98810.66;4993754;28;20041;-89
2021/12/10 10:18:30;;;;;;;11.48;1.60;;;;;;;5.30;100.00;98825.28;4983536;28;20153;-89
2021/12/10 10:21:01;;;;;;;7.95;1.85;;;;;;;5.05;100.00;98819.56;4985530;28;20041;-88
2021/12/10 10:23:29;;;;;;;10.43;2.35;;;;;;;4.90;100.00;98826.25;4985855;28;20053;-88
2021/12/10 10:25:59;;;;;;;7.88;1.70;;;;;;;5.11;100.00;98827.88;4993695;28;20046;-88
2021/12/10 10:28:26;;;;;;;15.10;3.15;;;;;;;5.10;100.00;98848.72;4993857;28;20050;-88
2021/12/10 10:31:01;;;;;;;9.13;2.95;;;;;;;5.28;100.00;98849.63;4989245;28;20051;-89
2021/12/10 10:33:32;;;;;;;22.88;2.83;;;;;;;5.16;100.00;98851.03;4990969;28;20050;-89
2021/12/10 10:36:06;;;;;;;6.20;1.67;;;;;;;5.25;100.00;98879.16;5009908;28;20049;-89
2021/12/10 10:38:34;;;;;;;9.15;1.63;;;;;;;5.33;100.00;98871.88;4995945;28;20061;-89
2021/12/10 10:41:08;;;;;;;7.57;1.40;;;;;;;5.54;100.00;98883.91;4986676;28;20050;-89
2021/12/10 10:43:35;;;;;;;7.63;1.60;;;;;;;5.56;100.00;98871.69;5005181;28;20061;-89
2021/12/10 10:46:03;;;;;;;11.00;2.42;;;;;;;5.54;100.00;98887.34;4988433;28;20049;-88
2021/12/10 10:48:30;;;;;;;7.10;1.63;;;;;;;5.49;100.00;98907.50;4997054;28;20056;-88
2021/12/10 10:51:04;;;;;;;7.05;1.50;;;;;;;5.41;100.00;98894.03;4989799;28;20061;-88
2021/12/10 10:53:44;;;;;;;4.75;1.60;;;;;;;5.62;100.00;98911.22;4989903;28;20050;-88
2021/12/10 10:56:15;;;;;;;6.65;1.52;;;;;;;5.56;100.00;98923.63;4993330;28;20125;-88
2021/12/10 10:58:49;;;;;;;10.55;1.98;;;;;;;5.57;100.00;98918.38;5015767;28;20477;-88
2021/12/10 11:01:24;;;;;;;4.97;2.13;;;;;;;5.40;100.00;98932.13;4983666;28;20129;-89
2021/12/10 11:04:24;;;;;;;5.35;1.33;;;;;;;5.54;100.00;98913.31;4990884;28;20056;-88
2021/12/10 11:06:53;;;;;;;7.32;1.60;;;;;;;5.70;100.00;98909.09;4986500;28;20050;-88
2021/12/10 11:09:24;;;;;;;7.75;1.85;;;;;;;5.57;100.00;98917.53;5005443;28;20050;-88
2021/12/10 11:11:55;;;;;;;6.25;1.40;;;;;;;5.62;100.00;98944.97;4991106;28;20072;-88
2021/12/10 11:14:29;;;;;;;9.18;1.88;;;;;;;5.51;100.00;98942.84;4996876;28;20423;-87
2021/12/10 11:17:06;;;;;;;5.18;1.30;;;;;;;5.71;100.00;98951.47;4996434;28;20104;-88
2021/12/10 11:20:04;;;;;;;6.07;1.40;;;;;;;5.87;100.00;98949.03;4998329;28;20127;-87
2021/12/10 11:22:33;;;;;;;7.05;1.50;;;;;;;5.62;100.00;98929.38;4991482;28;20137;-87
2021/12/10 11:25:09;;;;;;;7.68;1.48;;;;;;;5.66;100.00;98894.56;4989362;28;20050;-87
2021/12/10 11:27:40;;;;;;;5.35;1.50;;;;;;;5.57;100.00;98894.16;4994080;28;20080;-88
2021/12/10 11:30:33;;;;;;;3.33;1.35;;;;;;;5.84;100.00;98959.53;4996076;28;20049;-90
2021/12/10 11:33:16;;;;;;;5.95;1.60;;;;;;;5.93;100.00;98950.47;4978567;28;20104;-88
2021/12/10 11:35:48;;;;;;;8.68;1.60;;;;;;;5.87;100.00;98917.84;4989706;28;20500;-89
2021/12/10 11:38:25;;;;;;;6.50;1.45;;;;;;;5.47;100.00;98927.47;4988504;28;20062;-90
2021/12/10 11:40:57;;;;;;;8.38;1.75;;;;;;;5.89;100.00;98968.81;5000174;28;20053;-89
2021/12/10 11:49:41;;;;;;;8.95;2.15;;;;;;;5.98;100.00;98979.72;4993452;28;20050;-89
2021/12/10 11:52:13;;;;;;;4.82;1.38;;;;;;;6.12;100.00;98987.69;4983248;28;20058;-90
2021/12/10 11:55:06;;;;;;;8.68;1.80;;;;;;;5.94;100.00;98991.97;4983481;28;20064;-89
2021/12/10 11:57:35;;;;;;;;;;;;;;;6.17;100.00;98993.53;4993289;28;20153;-89
2021/12/10 12:00:09;;;;;;;4.60;1.27;;;;;;;6.18;100.00;98996.97;4985359;28;19922;-89
2021/12/10 12:02:47;;;;;;;7.80;1.40;;;;;;;6.30;100.00;98978.19;4986656;28;20607;-89
2021/12/10 12:05:19;;;;;;;6.30;1.60;;;;;;;6.40;100.00;98974.22;5004057;28;20054;-89